sensor_id;sensor_type;location;lat;lon;timestamp;temperature;humidity
19829;DHT22;10075;50.924;4.396;2023-01-28T00:01:29;5.90;99.90
19829;DHT22;10075;50.924;4.396;2023-01-28T00:03:56;6.10;99.90
19829;DHT22;10075;50.924;4.396;2023-01-28T00:06:23;6.10;99.90
19829;DHT22;10075;50.924;4.396;2023-01-28T00:08:50;6.20;99.90
19829;DHT22;10075;50.924;4.396;2023-01-28T00:11:17;6.20;99.90
19829;DHT22;10075;50.924;4.396;2023-01-28T00:13:44;6.20;99.90
19829;DHT22;10075;50.924;4.396;2023-01-28T00:16:12;6.30;99.90
19829;DHT22;10075;50.924;4.396;2023-01-28T00:18:39;6.40;99.90
19829;DHT22;10075;50.924;4.396;2023-01-28T00:21:09;6.30;99.90
19829;DHT22;10075;50.924;4.396;2023-01-28T00:23:38;6.30;99.90
19829;DHT22;10075;50.924;4.396;2023-01-28T00:26:07;6.20;99.90
19829;DHT22;10075;50.924;4.396;2023-01-28T00:28:34;6.20;99.90
19829;DHT22;10075;50.924;4.396;2023-01-28T00:31:06;6.20;99.90
19829;DHT22;10075;50.924;4.396;2023-01-28T00:33:35;5.90;99.90
19829;DHT22;10075;50.924;4.396;2023-01-28T00:36:04;5.90;99.90
19829;DHT22;10075;50.924;4.396;2023-01-28T00:38:31;6.00;99.90
19829;DHT22;10075;50.924;4.396;2023-01-28T00:41:06;6.10;99.90
19829;DHT22;10075;50.924;4.396;2023-01-28T00:43:34;6.30;99.90
19829;DHT22;10075;50.924;4.396;2023-01-28T00:46:01;6.10;99.90
19829;DHT22;10075;50.924;4.396;2023-01-28T00:48:28;6.10;99.90
19829;DHT22;10075;50.924;4.396;2023-01-28T00:50:56;6.00;99.90
19829;DHT22;10075;50.924;4.396;2023-01-28T00:53:23;5.90;99.90
19829;DHT22;10075;50.924;4.396;2023-01-28T00:55:50;5.80;99.90
19829;DHT22;10075;50.924;4.396;2023-01-28T00:58:18;5.80;99.90
19829;DHT22;10075;50.924;4.396;2023-01-28T01:00:45;5.80;99.90
19829;DHT22;10075;50.924;4.396;2023-01-28T01:03:12;5.70;99.90
19829;DHT22;10075;50.924;4.396;2023-01-28T01:05:39;5.80;99.90
19829;DHT22;10075;50.924;4.396;2023-01-28T01:08:07;5.70;99.90
19829;DHT22;10075;50.924;4.396;2023-01-28T01:10:35;5.70;99.90
19829;DHT22;10075;50.924;4.396;2023-01-28T01:13:03;5.70;99.90
19829;DHT22;10075;50.924;4.396;2023-01-28T01:15:31;5.80;99.90
19829;DHT22;10075;50.924;4.396;2023-01-28T01:17:58;5.80;99.90
19829;DHT22;10075;50.924;4.396;2023-01-28T01:20:27;5.70;99.90
19829;DHT22;10075;50.924;4.396;2023-01-28T01:22:55;5.90;99.90
19829;DHT22;10075;50.924;4.396;2023-01-28T01:25:24;6.00;99.90
19829;DHT22;10075;50.924;4.396;2023-01-28T01:27:50;5.90;99.90
19829;DHT22;10075;50.924;4.396;2023-01-28T01:30:18;6.00;99.90
19829;DHT22;10075;50.924;4.396;2023-01-28T01:32:45;5.90;99.90
19829;DHT22;10075;50.924;4.396;2023-01-28T01:35:12;5.70;99.90
19829;DHT22;10075;50.924;4.396;2023-01-28T01:37:39;5.70;99.90
19829;DHT22;10075;50.924;4.396;2023-01-28T01:40:07;5.80;99.90
19829;DHT22;10075;50.924;4.396;2023-01-28T01:42:36;5.80;99.90
19829;DHT22;10075;50.924;4.396;2023-01-28T01:45:05;5.60;99.90
19829;DHT22;10075;50.924;4.396;2023-01-28T01:47:39;5.40;99.90
19829;DHT22;10075;50.924;4.396;2023-01-28T01:50:17;5.50;99.90
19829;DHT22;10075;50.924;4.396;2023-01-28T01:52:47;5.30;99.90
19829;DHT22;10075;50.924;4.396;2023-01-28T01:55:18;5.40;99.90
19829;DHT22;10075;50.924;4.396;2023-01-28T01:57:49;5.30;99.90
19829;DHT22;10075;50.924;4.396;2023-01-28T02:00:17;5.50;99.90
19829;DHT22;10075;50.924;4.396;2023-01-28T02:02:47;5.50;99.90
19829;DHT22;10075;50.924;4.396;2023-01-28T02:05:17;5.40;99.90
19829;DHT22;10075;50.924;4.396;2023-01-28T02:07:45;5.30;99.90
19829;DHT22;10075;50.924;4.396;2023-01-28T02:10:12;5.60;99.90
19829;DHT22;10075;50.924;4.396;2023-01-28T02:12:42;5.60;99.90
19829;DHT22;10075;50.924;4.396;2023-01-28T02:15:14;5.60;99.90
19829;DHT22;10075;50.924;4.396;2023-01-28T02:17:42;5.60;99.90
19829;DHT22;10075;50.924;4.396;2023-01-28T02:20:10;5.50;99.90
19829;DHT22;10075;50.924;4.396;2023-01-28T02:28:40;5.40;99.90
19829;DHT22;10075;50.924;4.396;2023-01-28T02:31:13;5.40;99.90
19829;DHT22;10075;50.924;4.396;2023-01-28T02:33:44;5.40;99.90
19829;DHT22;10075;50.924;4.396;2023-01-28T02:36:19;5.40;99.90
19829;DHT22;10075;50.924;4.396;2023-01-28T02:38:49;5.40;99.90
19829;DHT22;10075;50.924;4.396;2023-01-28T02:41:23;5.60;99.90
19829;DHT22;10075;50.924;4.396;2023-01-28T02:43:52;5.60;99.90
19829;DHT22;10075;50.924;4.396;2023-01-28T02:46:32;5.60;99.90
19829;DHT22;10075;50.924;4.396;2023-01-28T02:49:21;5.60;99.90
19829;DHT22;10075;50.924;4.396;2023-01-28T02:52:24;5.40;99.90
19829;DHT22;10075;50.924;4.396;2023-01-28T02:55:14;5.30;99.90
19829;DHT22;10075;50.924;4.396;2023-01-28T02:57:50;5.40;99.90
19829;DHT22;10075;50.924;4.396;2023-01-28T03:00:25;5.30;99.90
19829;DHT22;10075;50.924;4.396;2023-01-28T03:02:58;5.40;99.90
19829;DHT22;10075;50.924;4.396;2023-01-28T03:05:33;5.40;99.90
19829;DHT22;10075;50.924;4.396;2023-01-28T03:08:02;5.50;99.90
19829;DHT22;10075;50.924;4.396;2023-01-28T03:10:50;5.50;99.90
19829;DHT22;10075;50.924;4.396;2023-01-28T03:13:36;5.40;99.90
19829;DHT22;10075;50.924;4.396;2023-01-28T03:16:23;5.10;99.90
19829;DHT22;10075;50.924;4.396;2023-01-28T03:19:08;5.20;99.90
19829;DHT22;10075;50.924;4.396;2023-01-28T03:21:54;5.20;99.90
19829;DHT22;10075;50.924;4.396;2023-01-28T03:24:45;5.50;99.90
19829;DHT22;10075;50.924;4.396;2023-01-28T03:27:34;5.40;99.90
19829;DHT22;10075;50.924;4.396;2023-01-28T03:30:26;5.30;99.90
19829;DHT22;10075;50.924;4.396;2023-01-28T03:33:15;5.50;99.90
19829;DHT22;10075;50.924;4.396;2023-01-28T03:36:00;5.50;99.90
19829;DHT22;10075;50.924;4.396;2023-01-28T03:38:45;5.30;99.90
19829;DHT22;10075;50.924;4.396;2023-01-28T03:41:19;5.20;99.90
19829;DHT22;10075;50.924;4.396;2023-01-28T03:43:47;5.20;99.90
19829;DHT22;10075;50.924;4.396;2023-01-28T03:46:14;5.20;99.90
19829;DHT22;10075;50.924;4.396;2023-01-28T03:48:43;5.20;99.90
19829;DHT22;10075;50.924;4.396;2023-01-28T03:51:10;5.40;99.90
19829;DHT22;10075;50.924;4.396;2023-01-28T03:53:37;5.40;99.90
19829;DHT22;10075;50.924;4.396;2023-01-28T03:56:05;5.50;99.90
19829;DHT22;10075;50.924;4.396;2023-01-28T03:58:33;5.60;99.90
19829;DHT22;10075;50.924;4.396;2023-01-28T04:01:17;5.70;99.90
19829;DHT22;10075;50.924;4.396;2023-01-28T04:03:46;5.60;99.90
19829;DHT22;10075;50.924;4.396;2023-01-28T04:06:13;5.70;99.90
19829;DHT22;10075;50.924;4.396;2023-01-28T04:08:41;5.60;99.90
19829;DHT22;10075;50.924;4.396;2023-01-28T04:11:13;5.70;99.90
19829;DHT22;10075;50.924;4.396;2023-01-28T04:13:45;5.60;99.90
19829;DHT22;10075;50.924;4.396;2023-01-28T04:16:13;5.60;99.90
19829;DHT22;10075;50.924;4.396;2023-01-28T04:18:40;5.40;99.90
19829;DHT22;10075;50.924;4.396;2023-01-28T04:21:09;5.40;99.90
19829;DHT22;10075;50.924;4.396;2023-01-28T04:23:37;5.40;99.90
19829;DHT22;10075;50.924;4.396;2023-01-28T04:26:04;5.50;99.90
19829;DHT22;10075;50.924;4.396;2023-01-28T04:28:31;5.60;99.90
19829;DHT22;10075;50.924;4.396;2023-01-28T04:30:58;5.50;99.90
19829;DHT22;10075;50.924;4.396;2023-01-28T04:33:25;5.30;99.90
19829;DHT22;10075;50.924;4.396;2023-01-28T04:35:52;5.30;99.90
19829;DHT22;10075;50.924;4.396;2023-01-28T04:38:20;5.30;99.90
19829;DHT22;10075;50.924;4.396;2023-01-28T04:40:51;5.30;99.90
19829;DHT22;10075;50.924;4.396;2023-01-28T04:43:18;5.30;99.90
19829;DHT22;10075;50.924;4.396;2023-01-28T04:45:46;5.00;99.90
19829;DHT22;10075;50.924;4.396;2023-01-28T04:48:13;4.90;99.90
19829;DHT22;10075;50.924;4.396;2023-01-28T04:50:41;4.80;99.90
19829;DHT22;10075;50.924;4.396;2023-01-28T04:53:09;4.80;99.90
19829;DHT22;10075;50.924;4.396;2023-01-28T04:55:37;4.80;99.90
19829;DHT22;10075;50.924;4.396;2023-01-28T04:58:04;4.60;99.90
19829;DHT22;10075;50.924;4.396;2023-01-28T05:00:31;4.70;99.90
19829;DHT22;10075;50.924;4.396;2023-01-28T05:02:58;4.70;99.90
19829;DHT22;10075;50.924;4.396;2023-01-28T05:05:25;4.70;99.90
19829;DHT22;10075;50.924;4.396;2023-01-28T05:07:53;4.70;99.90
19829;DHT22;10075;50.924;4.396;2023-01-28T05:10:21;4.80;99.90
19829;DHT22;10075;50.924;4.396;2023-01-28T05:12:49;4.80;99.90
19829;DHT22;10075;50.924;4.396;2023-01-28T05:15:17;5.00;99.90
19829;DHT22;10075;50.924;4.396;2023-01-28T05:17:45;4.80;99.90
19829;DHT22;10075;50.924;4.396;2023-01-28T05:20:13;4.70;99.90
19829;DHT22;10075;50.924;4.396;2023-01-28T05:22:40;4.60;99.90
19829;DHT22;10075;50.924;4.396;2023-01-28T05:25:08;4.80;99.90
19829;DHT22;10075;50.924;4.396;2023-01-28T05:27:36;4.80;99.90
19829;DHT22;10075;50.924;4.396;2023-01-28T05:30:05;4.70;99.90
19829;DHT22;10075;50.924;4.396;2023-01-28T05:32:32;4.70;99.90
19829;DHT22;10075;50.924;4.396;2023-01-28T05:34:59;4.70;99.90
19829;DHT22;10075;50.924;4.396;2023-01-28T05:37:26;4.80;99.90
19829;DHT22;10075;50.924;4.396;2023-01-28T05:39:53;4.90;99.90
19829;DHT22;10075;50.924;4.396;2023-01-28T05:42:20;4.80;99.90
19829;DHT22;10075;50.924;4.396;2023-01-28T05:44:47;4.40;99.90
19829;DHT22;10075;50.924;4.396;2023-01-28T05:47:16;4.30;99.90
19829;DHT22;10075;50.924;4.396;2023-01-28T05:49:43;4.50;99.90
19829;DHT22;10075;50.924;4.396;2023-01-28T05:52:11;4.40;99.90
19829;DHT22;10075;50.924;4.396;2023-01-28T05:54:38;4.30;99.90
19829;DHT22;10075;50.924;4.396;2023-01-28T05:57:05;4.30;99.90
19829;DHT22;10075;50.924;4.396;2023-01-28T05:59:32;4.50;99.90
19829;DHT22;10075;50.924;4.396;2023-01-28T06:01:59;4.60;99.90
19829;DHT22;10075;50.924;4.396;2023-01-28T06:04:27;4.70;99.90
19829;DHT22;10075;50.924;4.396;2023-01-28T06:06:54;4.70;99.90
19829;DHT22;10075;50.924;4.396;2023-01-28T06:09:21;4.80;99.90
19829;DHT22;10075;50.924;4.396;2023-01-28T06:11:48;4.80;99.90
19829;DHT22;10075;50.924;4.396;2023-01-28T06:14:15;4.90;99.90
19829;DHT22;10075;50.924;4.396;2023-01-28T06:16:42;5.00;99.90
19829;DHT22;10075;50.924;4.396;2023-01-28T06:19:09;5.10;99.90
19829;DHT22;10075;50.924;4.396;2023-01-28T06:21:38;5.20;99.90
19829;DHT22;10075;50.924;4.396;2023-01-28T06:24:05;5.30;99.90
19829;DHT22;10075;50.924;4.396;2023-01-28T06:26:32;5.40;99.90
19829;DHT22;10075;50.924;4.396;2023-01-28T06:28:59;5.30;99.90
19829;DHT22;10075;50.924;4.396;2023-01-28T06:31:27;5.30;99.90
19829;DHT22;10075;50.924;4.396;2023-01-28T06:33:54;5.20;99.90
19829;DHT22;10075;50.924;4.396;2023-01-28T06:36:21;5.20;99.90
19829;DHT22;10075;50.924;4.396;2023-01-28T06:38:50;5.10;99.90
19829;DHT22;10075;50.924;4.396;2023-01-28T06:41:16;5.00;99.90
19829;DHT22;10075;50.924;4.396;2023-01-28T06:43:43;5.20;99.90
19829;DHT22;10075;50.924;4.396;2023-01-28T06:46:10;5.30;99.90
19829;DHT22;10075;50.924;4.396;2023-01-28T06:48:37;5.30;99.90
19829;DHT22;10075;50.924;4.396;2023-01-28T06:51:05;5.40;99.90
19829;DHT22;10075;50.924;4.396;2023-01-28T06:53:34;5.30;99.90
19829;DHT22;10075;50.924;4.396;2023-01-28T06:56:03;5.30;99.90
19829;DHT22;10075;50.924;4.396;2023-01-28T06:58:31;5.30;99.90
19829;DHT22;10075;50.924;4.396;2023-01-28T07:00:58;5.30;99.90
19829;DHT22;10075;50.924;4.396;2023-01-28T07:03:25;5.20;99.90
19829;DHT22;10075;50.924;4.396;2023-01-28T07:05:52;5.10;99.90
19829;DHT22;10075;50.924;4.396;2023-01-28T07:08:19;5.20;99.90
19829;DHT22;10075;50.924;4.396;2023-01-28T07:10:49;5.30;99.90
19829;DHT22;10075;50.924;4.396;2023-01-28T07:13:17;5.20;99.90
19829;DHT22;10075;50.924;4.396;2023-01-28T07:15:44;5.20;99.90
19829;DHT22;10075;50.924;4.396;2023-01-28T07:18:11;5.30;99.90
19829;DHT22;10075;50.924;4.396;2023-01-28T07:20:38;5.20;99.90
19829;DHT22;10075;50.924;4.396;2023-01-28T07:23:05;5.30;99.90
19829;DHT22;10075;50.924;4.396;2023-01-28T07:25:32;5.20;99.90
19829;DHT22;10075;50.924;4.396;2023-01-28T07:27:59;5.10;99.90
19829;DHT22;10075;50.924;4.396;2023-01-28T07:30:28;5.10;99.90
19829;DHT22;10075;50.924;4.396;2023-01-28T07:32:56;5.10;99.90
19829;DHT22;10075;50.924;4.396;2023-01-28T07:35:24;5.10;99.90
19829;DHT22;10075;50.924;4.396;2023-01-28T07:37:52;5.10;99.90
19829;DHT22;10075;50.924;4.396;2023-01-28T07:40:20;5.20;99.90
19829;DHT22;10075;50.924;4.396;2023-01-28T07:42:47;5.20;99.90
19829;DHT22;10075;50.924;4.396;2023-01-28T07:45:15;5.20;99.90
19829;DHT22;10075;50.924;4.396;2023-01-28T07:47:43;5.10;99.90
19829;DHT22;10075;50.924;4.396;2023-01-28T07:50:11;5.30;99.90
19829;DHT22;10075;50.924;4.396;2023-01-28T07:52:38;5.30;99.90
19829;DHT22;10075;50.924;4.396;2023-01-28T07:55:09;5.20;99.90
19829;DHT22;10075;50.924;4.396;2023-01-28T07:57:47;5.10;99.90
19829;DHT22;10075;50.924;4.396;2023-01-28T08:00:15;5.10;99.90
19829;DHT22;10075;50.924;4.396;2023-01-28T08:02:44;5.10;99.90
19829;DHT22;10075;50.924;4.396;2023-01-28T08:05:14;5.10;99.90
19829;DHT22;10075;50.924;4.396;2023-01-28T08:07:41;5.00;99.90
19829;DHT22;10075;50.924;4.396;2023-01-28T08:10:09;4.90;99.90
19829;DHT22;10075;50.924;4.396;2023-01-28T08:12:37;4.80;99.90
19829;DHT22;10075;50.924;4.396;2023-01-28T08:15:05;4.90;99.90
19829;DHT22;10075;50.924;4.396;2023-01-28T08:17:32;5.00;99.90
19829;DHT22;10075;50.924;4.396;2023-01-28T08:20:01;5.10;99.90
19829;DHT22;10075;50.924;4.396;2023-01-28T08:22:28;5.00;99.90
19829;DHT22;10075;50.924;4.396;2023-01-28T08:24:55;5.10;99.90
19829;DHT22;10075;50.924;4.396;2023-01-28T08:27:22;5.10;99.90
19829;DHT22;10075;50.924;4.396;2023-01-28T08:29:49;5.20;99.90
19829;DHT22;10075;50.924;4.396;2023-01-28T08:32:16;5.40;99.90
19829;DHT22;10075;50.924;4.396;2023-01-28T08:34:43;5.50;99.90
19829;DHT22;10075;50.924;4.396;2023-01-28T08:37:11;5.50;99.90
19829;DHT22;10075;50.924;4.396;2023-01-28T08:39:39;5.40;99.90
19829;DHT22;10075;50.924;4.396;2023-01-28T08:42:06;5.30;99.90
19829;DHT22;10075;50.924;4.396;2023-01-28T08:44:33;5.10;99.90
19829;DHT22;10075;50.924;4.396;2023-01-28T08:47:00;5.30;99.90
19829;DHT22;10075;50.924;4.396;2023-01-28T08:49:27;5.40;99.90
19829;DHT22;10075;50.924;4.396;2023-01-28T08:51:54;5.30;99.90
19829;DHT22;10075;50.924;4.396;2023-01-28T08:54:23;5.40;99.90
19829;DHT22;10075;50.924;4.396;2023-01-28T08:56:50;5.50;99.90
19829;DHT22;10075;50.924;4.396;2023-01-28T08:59:18;5.50;99.90
19829;DHT22;10075;50.924;4.396;2023-01-28T09:01:45;5.40;99.90
19829;DHT22;10075;50.924;4.396;2023-01-28T09:04:12;5.50;99.90
19829;DHT22;10075;50.924;4.396;2023-01-28T09:06:39;5.50;99.90
19829;DHT22;10075;50.924;4.396;2023-01-28T09:09:06;5.40;99.90
19829;DHT22;10075;50.924;4.396;2023-01-28T09:11:34;5.40;99.90
19829;DHT22;10075;50.924;4.396;2023-01-28T09:14:01;5.30;99.90
19829;DHT22;10075;50.924;4.396;2023-01-28T09:16:28;5.10;99.90
19829;DHT22;10075;50.924;4.396;2023-01-28T09:18:55;5.00;99.90
19829;DHT22;10075;50.924;4.396;2023-01-28T09:21:22;4.90;99.90
19829;DHT22;10075;50.924;4.396;2023-01-28T09:23:49;4.70;99.90
19829;DHT22;10075;50.924;4.396;2023-01-28T09:26:16;4.80;99.90
19829;DHT22;10075;50.924;4.396;2023-01-28T09:28:46;4.50;99.90
19829;DHT22;10075;50.924;4.396;2023-01-28T09:31:13;4.40;99.90
19829;DHT22;10075;50.924;4.396;2023-01-28T09:33:40;4.40;99.90
19829;DHT22;10075;50.924;4.396;2023-01-28T09:36:09;4.30;99.90
19829;DHT22;10075;50.924;4.396;2023-01-28T09:38:37;4.40;99.90
19829;DHT22;10075;50.924;4.396;2023-01-28T09:41:23;4.60;99.90
19829;DHT22;10075;50.924;4.396;2023-01-28T09:44:05;4.80;99.90
19829;DHT22;10075;50.924;4.396;2023-01-28T09:46:34;5.10;99.90
19829;DHT22;10075;50.924;4.396;2023-01-28T09:49:04;5.30;99.90
19829;DHT22;10075;50.924;4.396;2023-01-28T09:51:40;5.10;99.90
19829;DHT22;10075;50.924;4.396;2023-01-28T09:54:13;5.00;99.90
19829;DHT22;10075;50.924;4.396;2023-01-28T09:56:47;4.70;99.90
19829;DHT22;10075;50.924;4.396;2023-01-28T09:59:20;4.40;99.90
19829;DHT22;10075;50.924;4.396;2023-01-28T10:01:53;4.60;99.90
19829;DHT22;10075;50.924;4.396;2023-01-28T10:04:32;4.70;99.90
19829;DHT22;10075;50.924;4.396;2023-01-28T10:07:17;4.70;99.90
19829;DHT22;10075;50.924;4.396;2023-01-28T10:09:55;4.40;99.90
19829;DHT22;10075;50.924;4.396;2023-01-28T10:12:44;4.60;99.90
19829;DHT22;10075;50.924;4.396;2023-01-28T10:15:28;4.70;99.90
19829;DHT22;10075;50.924;4.396;2023-01-28T10:18:06;4.50;99.90
19829;DHT22;10075;50.924;4.396;2023-01-28T10:20:39;4.30;99.90
19829;DHT22;10075;50.924;4.396;2023-01-28T10:23:13;4.50;99.90
19829;DHT22;10075;50.924;4.396;2023-01-28T10:25:41;4.70;99.90
19829;DHT22;10075;50.924;4.396;2023-01-28T10:28:18;4.70;99.90
19829;DHT22;10075;50.924;4.396;2023-01-28T10:30:47;4.80;99.90
19829;DHT22;10075;50.924;4.396;2023-01-28T10:33:18;4.80;99.90
19829;DHT22;10075;50.924;4.396;2023-01-28T10:35:46;4.60;99.90
19829;DHT22;10075;50.924;4.396;2023-01-28T10:38:15;4.60;99.90
19829;DHT22;10075;50.924;4.396;2023-01-28T10:40:43;4.50;99.90
19829;DHT22;10075;50.924;4.396;2023-01-28T10:43:13;4.50;99.90
19829;DHT22;10075;50.924;4.396;2023-01-28T10:45:47;4.60;99.90
19829;DHT22;10075;50.924;4.396;2023-01-28T10:48:22;4.60;99.90
19829;DHT22;10075;50.924;4.396;2023-01-28T10:50:52;5.00;99.90
19829;DHT22;10075;50.924;4.396;2023-01-28T10:53:33;5.30;99.90
19829;DHT22;10075;50.924;4.396;2023-01-28T10:56:00;5.50;99.90
19829;DHT22;10075;50.924;4.396;2023-01-28T10:58:30;5.70;99.90
19829;DHT22;10075;50.924;4.396;2023-01-28T11:01:04;5.60;99.90
19829;DHT22;10075;50.924;4.396;2023-01-28T11:03:31;5.80;99.90
19829;DHT22;10075;50.924;4.396;2023-01-28T11:06:00;5.50;99.90
19829;DHT22;10075;50.924;4.396;2023-01-28T11:08:29;5.00;99.90
19829;DHT22;10075;50.924;4.396;2023-01-28T11:10:56;5.00;99.90
19829;DHT22;10075;50.924;4.396;2023-01-28T11:13:25;5.30;99.90
19829;DHT22;10075;50.924;4.396;2023-01-28T11:15:59;5.40;99.90
19829;DHT22;10075;50.924;4.396;2023-01-28T11:18:30;5.20;99.90
19829;DHT22;10075;50.924;4.396;2023-01-28T11:20:59;5.40;99.90
19829;DHT22;10075;50.924;4.396;2023-01-28T11:23:29;5.50;99.90
19829;DHT22;10075;50.924;4.396;2023-01-28T11:26:02;5.80;99.90
19829;DHT22;10075;50.924;4.396;2023-01-28T11:28:30;5.80;99.90
19829;DHT22;10075;50.924;4.396;2023-01-28T11:30:59;5.60;99.90
19829;DHT22;10075;50.924;4.396;2023-01-28T11:33:32;5.40;99.90
19829;DHT22;10075;50.924;4.396;2023-01-28T11:36:10;5.20;99.90
19829;DHT22;10075;50.924;4.396;2023-01-28T11:38:47;5.10;99.90
19829;DHT22;10075;50.924;4.396;2023-01-28T11:41:15;5.00;99.90
19829;DHT22;10075;50.924;4.396;2023-01-28T11:43:42;5.10;99.90
19829;DHT22;10075;50.924;4.396;2023-01-28T11:46:31;5.20;99.90
19829;DHT22;10075;50.924;4.396;2023-01-28T11:49:08;5.40;99.90
19829;DHT22;10075;50.924;4.396;2023-01-28T11:51:42;5.60;99.90
19829;DHT22;10075;50.924;4.396;2023-01-28T11:54:21;5.60;99.90
19829;DHT22;10075;50.924;4.396;2023-01-28T11:57:04;5.70;99.90
19829;DHT22;10075;50.924;4.396;2023-01-28T11:59:49;5.70;99.90
19829;DHT22;10075;50.924;4.396;2023-01-28T12:02:40;5.70;99.90
19829;DHT22;10075;50.924;4.396;2023-01-28T12:05:39;5.70;99.90
19829;DHT22;10075;50.924;4.396;2023-01-28T12:08:11;6.00;99.90
19829;DHT22;10075;50.924;4.396;2023-01-28T12:10:47;6.10;99.90
19829;DHT22;10075;50.924;4.396;2023-01-28T12:13:36;6.20;99.90
19829;DHT22;10075;50.924;4.396;2023-01-28T12:16:21;6.10;99.90
19829;DHT22;10075;50.924;4.396;2023-01-28T12:19:07;6.30;99.90
19829;DHT22;10075;50.924;4.396;2023-01-28T12:21:52;6.30;99.90
19829;DHT22;10075;50.924;4.396;2023-01-28T12:24:37;6.30;99.90
19829;DHT22;10075;50.924;4.396;2023-01-28T12:27:19;6.30;99.90
19829;DHT22;10075;50.924;4.396;2023-01-28T12:29:56;6.20;99.90
19829;DHT22;10075;50.924;4.396;2023-01-28T12:32:39;6.30;99.90
19829;DHT22;10075;50.924;4.396;2023-01-28T12:35:31;6.50;99.90
19829;DHT22;10075;50.924;4.396;2023-01-28T12:38:07;6.60;99.90
19829;DHT22;10075;50.924;4.396;2023-01-28T12:40:46;6.50;99.90
19829;DHT22;10075;50.924;4.396;2023-01-28T12:43:19;6.60;99.90
19829;DHT22;10075;50.924;4.396;2023-01-28T12:45:52;6.60;99.90
19829;DHT22;10075;50.924;4.396;2023-01-28T12:48:26;6.60;99.90
19829;DHT22;10075;50.924;4.396;2023-01-28T12:50:59;6.50;99.90
19829;DHT22;10075;50.924;4.396;2023-01-28T12:53:35;6.70;99.90
19829;DHT22;10075;50.924;4.396;2023-01-28T12:56:09;6.80;99.90
19829;DHT22;10075;50.924;4.396;2023-01-28T12:58:44;7.10;99.90
19829;DHT22;10075;50.924;4.396;2023-01-28T13:01:18;7.30;99.90
19829;DHT22;10075;50.924;4.396;2023-01-28T13:03:52;7.40;99.90
19829;DHT22;10075;50.924;4.396;2023-01-28T13:06:26;7.40;99.90
19829;DHT22;10075;50.924;4.396;2023-01-28T13:08:59;7.40;99.90
19829;DHT22;10075;50.924;4.396;2023-01-28T13:11:33;7.30;99.90
19829;DHT22;10075;50.924;4.396;2023-01-28T13:14:02;7.30;99.90
19829;DHT22;10075;50.924;4.396;2023-01-28T13:16:29;7.40;99.90
19829;DHT22;10075;50.924;4.396;2023-01-28T13:19:05;7.40;99.90
19829;DHT22;10075;50.924;4.396;2023-01-28T13:21:34;7.40;99.90
19829;DHT22;10075;50.924;4.396;2023-01-28T13:24:19;7.50;99.90
19829;DHT22;10075;50.924;4.396;2023-01-28T13:26:48;7.40;99.90
19829;DHT22;10075;50.924;4.396;2023-01-28T13:29:19;7.30;99.90
19829;DHT22;10075;50.924;4.396;2023-01-28T13:31:48;7.10;99.90
19829;DHT22;10075;50.924;4.396;2023-01-28T13:34:27;7.00;99.90
19829;DHT22;10075;50.924;4.396;2023-01-28T13:36:59;7.10;99.90
19829;DHT22;10075;50.924;4.396;2023-01-28T13:39:29;7.20;99.90
19829;DHT22;10075;50.924;4.396;2023-01-28T13:42:09;7.40;99.90
19829;DHT22;10075;50.924;4.396;2023-01-28T13:44:37;7.60;99.90
19829;DHT22;10075;50.924;4.396;2023-01-28T13:47:19;7.70;99.90
19829;DHT22;10075;50.924;4.396;2023-01-28T13:49:49;7.80;99.90
19829;DHT22;10075;50.924;4.396;2023-01-28T13:52:25;7.70;99.90
19829;DHT22;10075;50.924;4.396;2023-01-28T13:55:00;7.40;99.90
19829;DHT22;10075;50.924;4.396;2023-01-28T14:00:37;7.10;99.90
19829;DHT22;10075;50.924;4.396;2023-01-28T14:06:43;7.20;99.90
19829;DHT22;10075;50.924;4.396;2023-01-28T14:09:30;7.20;99.90
19829;DHT22;10075;50.924;4.396;2023-01-28T14:15:41;7.50;99.90
19829;DHT22;10075;50.924;4.396;2023-01-28T14:18:18;7.50;99.90
19829;DHT22;10075;50.924;4.396;2023-01-28T14:20:49;7.70;99.90
19829;DHT22;10075;50.924;4.396;2023-01-28T14:23:18;7.80;99.90
19829;DHT22;10075;50.924;4.396;2023-01-28T14:28:47;7.50;99.90
19829;DHT22;10075;50.924;4.396;2023-01-28T14:31:19;7.70;99.90
19829;DHT22;10075;50.924;4.396;2023-01-28T14:33:50;7.60;99.90
19829;DHT22;10075;50.924;4.396;2023-01-28T14:36:17;7.70;99.90
19829;DHT22;10075;50.924;4.396;2023-01-28T14:38:45;7.70;99.90
19829;DHT22;10075;50.924;4.396;2023-01-28T14:41:21;7.70;99.90
19829;DHT22;10075;50.924;4.396;2023-01-28T14:43:51;7.80;99.90
19829;DHT22;10075;50.924;4.396;2023-01-28T14:46:30;7.80;99.90
19829;DHT22;10075;50.924;4.396;2023-01-28T14:49:20;7.80;99.90
19829;DHT22;10075;50.924;4.396;2023-01-28T14:52:12;7.90;99.90
19829;DHT22;10075;50.924;4.396;2023-01-28T14:54:53;7.70;99.90
19829;DHT22;10075;50.924;4.396;2023-01-28T14:57:39;7.60;99.90
19829;DHT22;10075;50.924;4.396;2023-01-28T15:00:20;7.50;99.90
19829;DHT22;10075;50.924;4.396;2023-01-28T15:02:47;7.50;99.90
19829;DHT22;10075;50.924;4.396;2023-01-28T15:05:17;7.50;99.90
19829;DHT22;10075;50.924;4.396;2023-01-28T15:07:45;7.50;99.90
19829;DHT22;10075;50.924;4.396;2023-01-28T15:10:16;7.50;99.90
19829;DHT22;10075;50.924;4.396;2023-01-28T15:12:48;7.40;99.90
19829;DHT22;10075;50.924;4.396;2023-01-28T15:15:24;7.40;99.90
19829;DHT22;10075;50.924;4.396;2023-01-28T15:17:53;7.50;99.90
19829;DHT22;10075;50.924;4.396;2023-01-28T15:20:23;7.40;99.90
19829;DHT22;10075;50.924;4.396;2023-01-28T15:22:51;7.40;99.90
19829;DHT22;10075;50.924;4.396;2023-01-28T15:25:20;7.30;99.90
19829;DHT22;10075;50.924;4.396;2023-01-28T15:27:49;7.20;99.90
19829;DHT22;10075;50.924;4.396;2023-01-28T15:30:22;7.20;99.90
19829;DHT22;10075;50.924;4.396;2023-01-28T15:33:01;7.30;99.90
19829;DHT22;10075;50.924;4.396;2023-01-28T15:35:28;7.20;99.90
19829;DHT22;10075;50.924;4.396;2023-01-28T15:37:56;7.20;99.90
19829;DHT22;10075;50.924;4.396;2023-01-28T15:40:24;7.10;99.90
19829;DHT22;10075;50.924;4.396;2023-01-28T15:42:53;7.00;99.90
19829;DHT22;10075;50.924;4.396;2023-01-28T15:45:24;7.00;99.90
19829;DHT22;10075;50.924;4.396;2023-01-28T15:48:03;6.90;99.90
19829;DHT22;10075;50.924;4.396;2023-01-28T15:50:31;6.80;99.90
19829;DHT22;10075;50.924;4.396;2023-01-28T15:52:59;6.80;99.90
19829;DHT22;10075;50.924;4.396;2023-01-28T15:55:36;6.80;99.90
19829;DHT22;10075;50.924;4.396;2023-01-28T15:58:19;6.70;99.90
19829;DHT22;10075;50.924;4.396;2023-01-28T16:00:48;6.50;99.90
19829;DHT22;10075;50.924;4.396;2023-01-28T16:03:18;6.50;99.90
19829;DHT22;10075;50.924;4.396;2023-01-28T16:05:55;6.40;99.90
19829;DHT22;10075;50.924;4.396;2023-01-28T16:08:27;6.20;99.90
19829;DHT22;10075;50.924;4.396;2023-01-28T16:10:56;6.30;99.90
19829;DHT22;10075;50.924;4.396;2023-01-28T16:13:25;6.30;99.90
19829;DHT22;10075;50.924;4.396;2023-01-28T16:15:55;6.20;99.90
19829;DHT22;10075;50.924;4.396;2023-01-28T16:18:29;6.20;99.90
19829;DHT22;10075;50.924;4.396;2023-01-28T16:20:58;5.80;99.90
19829;DHT22;10075;50.924;4.396;2023-01-28T16:23:27;5.60;99.90
19829;DHT22;10075;50.924;4.396;2023-01-28T16:26:01;5.70;99.90
19829;DHT22;10075;50.924;4.396;2023-01-28T16:28:29;5.80;99.90
19829;DHT22;10075;50.924;4.396;2023-01-28T16:30:59;5.70;99.90